No.8 Ooshima Maru — JI3698 — position and weather

sailwx.info

Track history (hours):
 
Tides and Currents Weather Stations Pressure Air Temp Water Temp Dewpoint Dewpoint Depression Visibility Wind Speed Wind Dir Waves Ship Positions

No.8 Ooshima Maru

Last reported at 2017-Nov-14 23:16 UTC. Time now 2017-Nov-18 23:25 UTC.
Position N 34°39' E 135°24'.

Length 44 m.

Type: Tanker. MMSI: 431301609.

Date/timePositionNaut miles runAvg speedWind from/ knotsBaromVisibWave heightAir tempDewpointWater temp
2017-Nov-14 23:16N 34°39' E 135°24'  
2017-Nov-11 02:03N 34°39' E 135°26'111.2
2017-Nov-11 02:00N 34°39' E 135°26'610.7
2017-Nov-11 01:27N 34°41' E 135°19'2 3.2
2017-Nov-11 00:58N 34°42' E 135°18'0 0.0
2017-Nov-11 00:24N 34°42' E 135°18'0 0.0
2017-Nov-11 00:00N 34°42' E 135°18'0 0.0
2017-Nov-10 23:30N 34°42' E 135°18'4 8.2
2017-Nov-10 23:00N 34°40' E 135°22'3 0.2
2017-Nov-10 03:26N 34°40' E 135°19'3 6.5
2017-Nov-10 02:56N 34°42' E 135°16'0 0.0
2017-Nov-10 02:26N 34°42' E 135°16'0 0.0
2017-Nov-10 01:56N 34°42' E 135°16'0 0.0
2017-Nov-10 01:20N 34°42' E 135°16'0 0.1
2017-Nov-10 00:50N 34°42' E 135°16'0 0.1
2017-Nov-10 00:21N 34°42' E 135°16'0 0.0
2017-Nov-09 23:57N 34°42' E 135°16'0 0.1
2017-Nov-09 23:27N 34°42' E 135°16'3 6.7
2017-Nov-09 23:00N 34°41' E 135°19'29 1.2
2017-Nov-08 23:34N 34°14' E 135°08'0 1.1
2017-Nov-08 23:30N 34°14' E 135°08'1 1.7
2017-Nov-08 22:49N 34°15' E 135°06'0 0.0
2017-Nov-08 19:25N 34°15' E 135°06'0 0.0
2017-Nov-08 18:46N 34°15' E 135°06'0 0.0
2017-Nov-08 18:28N 34°15' E 135°06'0 0.0
2017-Nov-08 17:58N 34°15' E 135°06'0 0.0
2017-Nov-08 17:16N 34°15' E 135°06'0 0.0
2017-Nov-08 16:55N 34°15' E 135°06'0 0.1
2017-Nov-08 16:28N 34°15' E 135°06'0 0.0
2017-Nov-08 13:43N 34°15' E 135°06'0 0.0
2017-Nov-08 12:40N 34°15' E 135°06'0 0.0
2017-Nov-08 07:50N 34°15' E 135°06'4 1.2
2017-Nov-08 04:46N 34°11' E 135°05'311.2
2017-Nov-08 04:28N 34°14' E 135°04'23 1.1
2017-Nov-07 06:55N 34°37' E 135°09'410.4
2017-Nov-07 06:30N 34°37' E 135°15'10 0.2
2017-Nov-05 04:29N 34°38' E 135°27'510.3
2017-Nov-05 03:58N 34°34' E 135°22'  
Track history (hours):
 
Tides and Currents Weather Stations Pressure Air Temp Water Temp Dewpoint Dewpoint Depression Visibility Wind Speed Wind Dir Waves Ship Positions

No.8 Ooshima Maru

Last reported at 2017-Nov-14 23:16 UTC. Time now 2017-Nov-18 23:25 UTC.
Position N 34°39' E 135°24'.

Length 44 m.

Type: Tanker. MMSI: 431301609.

Date/timePositionNaut miles runAvg speedWind from/ knotsBaromVisibWave heightAir tempDewpointWater temp
2017-Nov-14 23:16N 34°39' E 135°24'  
2017-Nov-11 02:03N 34°39' E 135°26'111.2
2017-Nov-11 02:00N 34°39' E 135°26'610.7
2017-Nov-11 01:27N 34°41' E 135°19'2 3.2
2017-Nov-11 00:58N 34°42' E 135°18'0 0.0
2017-Nov-11 00:24N 34°42' E 135°18'0 0.0
2017-Nov-11 00:00N 34°42' E 135°18'0 0.0
2017-Nov-10 23:30N 34°42' E 135°18'4 8.2
2017-Nov-10 23:00N 34°40' E 135°22'3 0.2
2017-Nov-10 03:26N 34°40' E 135°19'3 6.5
2017-Nov-10 02:56N 34°42' E 135°16'0 0.0
2017-Nov-10 02:26N 34°42' E 135°16'0 0.0
2017-Nov-10 01:56N 34°42' E 135°16'0 0.0
2017-Nov-10 01:20N 34°42' E 135°16'0 0.1
2017-Nov-10 00:50N 34°42' E 135°16'0 0.1
2017-Nov-10 00:21N 34°42' E 135°16'0 0.0
2017-Nov-09 23:57N 34°42' E 135°16'0 0.1
2017-Nov-09 23:27N 34°42' E 135°16'3 6.7
2017-Nov-09 23:00N 34°41' E 135°19'29 1.2
2017-Nov-08 23:34N 34°14' E 135°08'0 1.1
2017-Nov-08 23:30N 34°14' E 135°08'1 1.7
2017-Nov-08 22:49N 34°15' E 135°06'0 0.0
2017-Nov-08 19:25N 34°15' E 135°06'0 0.0
2017-Nov-08 18:46N 34°15' E 135°06'0 0.0
2017-Nov-08 18:28N 34°15' E 135°06'0 0.0
2017-Nov-08 17:58N 34°15' E 135°06'0 0.0
2017-Nov-08 17:16N 34°15' E 135°06'0 0.0
2017-Nov-08 16:55N 34°15' E 135°06'0 0.1
2017-Nov-08 16:28N 34°15' E 135°06'0 0.0
2017-Nov-08 13:43N 34°15' E 135°06'0 0.0
2017-Nov-08 12:40N 34°15' E 135°06'0 0.0
2017-Nov-08 07:50N 34°15' E 135°06'4 1.2
2017-Nov-08 04:46N 34°11' E 135°05'311.2
2017-Nov-08 04:28N 34°14' E 135°04'23 1.1
2017-Nov-07 06:55N 34°37' E 135°09'410.4
2017-Nov-07 06:30N 34°37' E 135°15'10 0.2
2017-Nov-05 04:29N 34°38' E 135°27'510.3
2017-Nov-05 03:58N 34°34' E 135°22'  

Dump ship's entire track history